GLD1043 SBFN-SBIL
Flight info
| Callsign | GLD1043 |
|---|---|
| Flight time | 1h 59m |
| Altitude | 36000 |
| Route | EDVUP UN857 AMBET UZ14 AKPAS DCT TOLOG |
| Aircraft | B738/M-SDE2E3FGHIRWXY/LB1 |
Departure
| Time | 2026-04-20 13:44 |
|---|---|
| Airport | Fernando de Noronha Airport (SBFN) |
Arrival
| Time | 2026-04-20 15:44 |
|---|---|
| Airport | Bahia - Jorge Amado Airport (SBIL) |
| Time | Latitude | Longitude | Altitude | Speed | Heading |
|---|---|---|---|---|---|
| 2026-04-20 12:52 | -3.85588 | -32.42823 | 169 ft | 0 kts | 184° |
| 2026-04-20 13:26 | -3.85575 | -32.42822 | 169 ft | 4 kts | 196° |
| 2026-04-20 13:26 | -3.85559 | -32.42810 | 169 ft | 4 kts | 266° |
| 2026-04-20 13:27 | -3.85558 | -32.42790 | 169 ft | 4 kts | 254° |
| 2026-04-20 13:27 | -3.85545 | -32.42770 | 169 ft | 4 kts | 202° |
| 2026-04-20 13:27 | -3.85520 | -32.42763 | 168 ft | 3 kts | 199° |
| 2026-04-20 13:27 | -3.85517 | -32.42762 | 168 ft | 1 kts | 200° |
| 2026-04-20 13:35 | -3.85524 | -32.42764 | 168 ft | 2 kts | 195° |
| 2026-04-20 13:35 | -3.85546 | -32.42776 | 169 ft | 4 kts | 225° |
| 2026-04-20 13:35 | -3.85553 | -32.42791 | 169 ft | 1 kts | 251° |
| 2026-04-20 13:36 | -3.85555 | -32.42798 | 169 ft | 1 kts | 257° |
| 2026-04-20 13:36 | -3.85555 | -32.42802 | 169 ft | 0 kts | 267° |
| 2026-04-20 13:36 | -3.85555 | -32.42809 | 169 ft | 3 kts | 267° |
| 2026-04-20 13:37 | -3.85556 | -32.42852 | 169 ft | 7 kts | 270° |
| 2026-04-20 13:37 | -3.85552 | -32.42899 | 169 ft | 6 kts | 288° |
| 2026-04-20 13:37 | -3.85535 | -32.42921 | 169 ft | 3 kts | 319° |
| 2026-04-20 13:37 | -3.85529 | -32.42926 | 169 ft | 0 kts | 323° |
| 2026-04-20 13:38 | -3.85525 | -32.42929 | 169 ft | 3 kts | 323° |
| 2026-04-20 13:38 | -3.85496 | -32.42949 | 169 ft | 4 kts | 325° |
| 2026-04-20 13:38 | -3.85487 | -32.42955 | 169 ft | 0 kts | 326° |
| 2026-04-20 13:40 | -3.85487 | -32.42956 | 169 ft | 0 kts | 326° |
| 2026-04-20 13:40 | -3.85476 | -32.42963 | 169 ft | 4 kts | 326° |
| 2026-04-20 13:41 | -3.85440 | -32.42988 | 170 ft | 8 kts | 324° |
| 2026-04-20 13:41 | -3.85398 | -32.43032 | 171 ft | 9 kts | 293° |
| 2026-04-20 13:41 | -3.85407 | -32.43087 | 172 ft | 8 kts | 235° |
| 2026-04-20 13:41 | -3.85415 | -32.43123 | 172 ft | 4 kts | 307° |
| 2026-04-20 13:42 | -3.85388 | -32.43128 | 172 ft | 1 kts | 31° |
| 2026-04-20 13:42 | -3.85385 | -32.43105 | 172 ft | 0 kts | 92° |
| 2026-04-20 13:43 | -3.85391 | -32.43023 | 171 ft | 44 kts | 95° |
| 2026-04-20 13:44 | -3.85435 | -32.42424 | 167 ft | 125 kts | 94° |
| 2026-04-20 13:44 | -3.85482 | -32.41746 | 215 ft | 165 kts | 95° |
| 2026-04-20 13:44 | -3.85589 | -32.40171 | 1430 ft | 166 kts | 95° |
| 2026-04-20 13:44 | -3.85644 | -32.39386 | 2083 ft | 172 kts | 96° |
| 2026-04-20 13:45 | -3.85735 | -32.38166 | 2817 ft | 186 kts | 95° |
| 2026-04-20 13:45 | -3.85861 | -32.36777 | 3061 ft | 214 kts | 107° |
| 2026-04-20 13:45 | -3.86782 | -32.35560 | 3418 ft | 232 kts | 149° |
| 2026-04-20 13:45 | -3.88336 | -32.35152 | 4084 ft | 240 kts | 180° |
| 2026-04-20 13:46 | -3.90020 | -32.35612 | 4530 ft | 263 kts | 207° |
| 2026-04-20 13:46 | -3.91565 | -32.36582 | 5554 ft | 256 kts | 211° |
| 2026-04-20 13:46 | -3.93039 | -32.37570 | 6481 ft | 255 kts | 211° |
| 2026-04-20 13:46 | -3.94518 | -32.38566 | 7157 ft | 261 kts | 211° |
| 2026-04-20 13:47 | -3.96041 | -32.39585 | 7859 ft | 265 kts | 211° |
| 2026-04-20 13:47 | -3.97589 | -32.40613 | 8578 ft | 268 kts | 211° |
| 2026-04-20 13:47 | -3.99160 | -32.41651 | 9301 ft | 273 kts | 211° |
| 2026-04-20 13:47 | -4.00757 | -32.42708 | 10007 ft | 277 kts | 214° |
| 2026-04-20 13:48 | -4.02075 | -32.44136 | 10585 ft | 288 kts | 239° |
| 2026-04-20 13:48 | -4.02751 | -32.46081 | 10778 ft | 313 kts | 259° |
| 2026-04-20 13:48 | -4.03059 | -32.48318 | 10968 ft | 336 kts | 263° |
| 2026-04-20 13:48 | -4.03320 | -32.50722 | 11148 ft | 357 kts | 263° |
| 2026-04-20 13:49 | -4.03579 | -32.53227 | 11596 ft | 366 kts | 264° |
| 2026-04-20 13:49 | -4.03838 | -32.55784 | 12223 ft | 370 kts | 264° |
| 2026-04-20 13:49 | -4.04094 | -32.58357 | 12888 ft | 373 kts | 264° |
| 2026-04-20 13:49 | -4.04350 | -32.60956 | 13516 ft | 376 kts | 264° |
| 2026-04-20 13:50 | -4.04606 | -32.63575 | 14077 ft | 380 kts | 264° |
| 2026-04-20 13:50 | -4.04864 | -32.66222 | 14622 ft | 383 kts | 264° |
| 2026-04-20 13:50 | -4.05127 | -32.68893 | 15172 ft | 386 kts | 264° |
| 2026-04-20 13:50 | -4.05393 | -32.71578 | 15713 ft | 390 kts | 264° |
| 2026-04-20 13:51 | -4.05667 | -32.74291 | 16247 ft | 393 kts | 264° |
| 2026-04-20 13:51 | -4.06017 | -32.77018 | 16767 ft | 396 kts | 256° |
| 2026-04-20 13:51 | -4.07044 | -32.79542 | 17243 ft | 399 kts | 237° |
| 2026-04-20 13:51 | -4.08868 | -32.81634 | 17760 ft | 399 kts | 217° |
| 2026-04-20 13:52 | -4.11266 | -32.83010 | 18244 ft | 399 kts | 198° |
| 2026-04-20 13:52 | -4.13969 | -32.83587 | 18642 ft | 399 kts | 180° |
| 2026-04-20 13:52 | -4.16743 | -32.83525 | 19089 ft | 400 kts | 175° |
| 2026-04-20 13:52 | -4.19531 | -32.83368 | 19505 ft | 403 kts | 174° |
| 2026-04-20 13:53 | -4.22345 | -32.83191 | 19925 ft | 405 kts | 174° |
| 2026-04-20 13:53 | -4.25172 | -32.83019 | 20349 ft | 408 kts | 175° |
| 2026-04-20 13:53 | -4.27990 | -32.82861 | 20768 ft | 410 kts | 175° |
| 2026-04-20 13:53 | -4.30859 | -32.82711 | 21177 ft | 413 kts | 175° |
| 2026-04-20 13:54 | -4.33741 | -32.82567 | 21566 ft | 416 kts | 175° |
| 2026-04-20 13:54 | -4.36627 | -32.82428 | 21962 ft | 418 kts | 175° |
| 2026-04-20 13:54 | -4.39538 | -32.82288 | 22500 ft | 415 kts | 175° |
| 2026-04-20 13:54 | -4.42381 | -32.82154 | 23457 ft | 403 kts | 175° |
| 2026-04-20 13:55 | -4.45182 | -32.82020 | 23935 ft | 404 kts | 175° |
| 2026-04-20 13:55 | -4.48028 | -32.81881 | 23979 ft | 415 kts | 175° |
| 2026-04-20 13:55 | -4.50919 | -32.81737 | 24052 ft | 425 kts | 175° |
| 2026-04-20 13:55 | -4.53907 | -32.81591 | 24152 ft | 433 kts | 175° |
| 2026-04-20 13:56 | -4.56937 | -32.81496 | 24406 ft | 436 kts | 180° |
| 2026-04-20 13:56 | -4.59956 | -32.81867 | 24736 ft | 439 kts | 191° |
| 2026-04-20 13:56 | -4.62898 | -32.82726 | 25071 ft | 441 kts | 199° |
| 2026-04-20 13:56 | -4.65699 | -32.84027 | 25356 ft | 444 kts | 205° |
| 2026-04-20 13:57 | -4.68457 | -32.85456 | 25618 ft | 447 kts | 206° |
| 2026-04-20 13:57 | -4.71219 | -32.86912 | 25881 ft | 449 kts | 206° |
| 2026-04-20 13:57 | -4.73989 | -32.88373 | 26154 ft | 451 kts | 206° |
| 2026-04-20 13:57 | -4.76773 | -32.89833 | 26437 ft | 452 kts | 206° |
| 2026-04-20 13:58 | -4.79543 | -32.91275 | 26729 ft | 453 kts | 206° |
| 2026-04-20 13:58 | -4.82350 | -32.92727 | 26995 ft | 455 kts | 206° |
| 2026-04-20 13:58 | -4.85175 | -32.94184 | 27249 ft | 457 kts | 206° |
| 2026-04-20 13:58 | -4.88017 | -32.95646 | 27494 ft | 458 kts | 206° |
| 2026-04-20 13:59 | -4.90860 | -32.97107 | 27749 ft | 460 kts | 206° |
| 2026-04-20 13:59 | -4.93718 | -32.98576 | 27999 ft | 462 kts | 206° |
| 2026-04-20 13:59 | -4.96587 | -33.00051 | 28231 ft | 463 kts | 206° |
| 2026-04-20 13:59 | -4.99462 | -33.01529 | 28478 ft | 465 kts | 206° |
| 2026-04-20 14:00 | -5.02314 | -33.02996 | 28708 ft | 467 kts | 206° |
| 2026-04-20 14:00 | -5.05218 | -33.04490 | 28941 ft | 468 kts | 206° |
| 2026-04-20 14:00 | -5.08133 | -33.05990 | 29166 ft | 470 kts | 206° |
| 2026-04-20 14:00 | -5.11007 | -33.07469 | 29380 ft | 471 kts | 206° |
| 2026-04-20 14:01 | -5.13932 | -33.08974 | 29568 ft | 473 kts | 206° |
| 2026-04-20 14:01 | -5.16885 | -33.10494 | 29796 ft | 475 kts | 206° |
| 2026-04-20 14:01 | -5.19833 | -33.12012 | 30040 ft | 475 kts | 206° |
| 2026-04-20 14:01 | -5.22771 | -33.13524 | 30305 ft | 474 kts | 206° |
| 2026-04-20 14:02 | -5.25703 | -33.15034 | 30570 ft | 473 kts | 206° |
| 2026-04-20 14:02 | -5.28632 | -33.16543 | 30803 ft | 474 kts | 206° |
| 2026-04-20 14:02 | -5.31577 | -33.18059 | 31010 ft | 475 kts | 206° |
| 2026-04-20 14:02 | -5.34512 | -33.19571 | 31254 ft | 474 kts | 206° |
| 2026-04-20 14:03 | -5.37455 | -33.21087 | 31525 ft | 474 kts | 206° |
| 2026-04-20 14:03 | -5.40351 | -33.22579 | 31789 ft | 473 kts | 206° |
| 2026-04-20 14:03 | -5.43283 | -33.24090 | 32028 ft | 474 kts | 206° |
| 2026-04-20 14:03 | -5.46221 | -33.25603 | 32252 ft | 474 kts | 206° |
| 2026-04-20 14:04 | -5.49157 | -33.27116 | 32521 ft | 474 kts | 206° |
| 2026-04-20 14:04 | -5.52084 | -33.28625 | 32802 ft | 473 kts | 206° |
| 2026-04-20 14:04 | -5.55011 | -33.30134 | 33068 ft | 472 kts | 206° |
| 2026-04-20 14:04 | -5.57936 | -33.31641 | 33315 ft | 473 kts | 206° |
| 2026-04-20 14:05 | -5.60858 | -33.33148 | 33576 ft | 472 kts | 206° |
| 2026-04-20 14:05 | -5.63786 | -33.34658 | 33852 ft | 472 kts | 206° |
| 2026-04-20 14:05 | -5.66710 | -33.36165 | 34089 ft | 471 kts | 206° |
| 2026-04-20 14:05 | -5.69594 | -33.37653 | 34318 ft | 471 kts | 206° |
| 2026-04-20 14:06 | -5.72511 | -33.39157 | 34566 ft | 470 kts | 206° |
| 2026-04-20 14:06 | -5.75414 | -33.40655 | 34831 ft | 468 kts | 207° |
| 2026-04-20 14:06 | -5.78305 | -33.42146 | 35089 ft | 467 kts | 207° |
| 2026-04-20 14:06 | -5.81190 | -33.43635 | 35318 ft | 466 kts | 207° |
| 2026-04-20 14:07 | -5.84082 | -33.45127 | 35562 ft | 465 kts | 207° |
| 2026-04-20 14:07 | -5.86956 | -33.46610 | 35792 ft | 464 kts | 207° |
| 2026-04-20 14:07 | -5.89790 | -33.48073 | 35925 ft | 465 kts | 207° |
| 2026-04-20 14:07 | -5.92671 | -33.49560 | 35910 ft | 464 kts | 207° |
| 2026-04-20 14:08 | -5.98380 | -33.52508 | 35909 ft | 458 kts | 207° |
| 2026-04-20 14:08 | -6.04046 | -33.55434 | 35928 ft | 458 kts | 207° |
| 2026-04-20 14:09 | -6.09724 | -33.58367 | 35934 ft | 465 kts | 207° |
| 2026-04-20 14:09 | -6.15507 | -33.61355 | 35927 ft | 468 kts | 207° |
| 2026-04-20 14:10 | -6.27174 | -33.67385 | 35920 ft | 470 kts | 207° |
| 2026-04-20 14:11 | -6.32992 | -33.70393 | 35925 ft | 469 kts | 207° |
| 2026-04-20 14:11 | -6.38794 | -33.73393 | 35924 ft | 467 kts | 207° |
| 2026-04-20 14:12 | -6.44530 | -33.76361 | 35923 ft | 465 kts | 207° |
| 2026-04-20 14:12 | -6.50280 | -33.79336 | 35924 ft | 463 kts | 207° |
| 2026-04-20 14:13 | -6.55669 | -33.82126 | 35925 ft | 461 kts | 207° |
| 2026-04-20 14:13 | -6.61371 | -33.85078 | 35923 ft | 460 kts | 207° |
| 2026-04-20 14:14 | -6.67024 | -33.88005 | 35926 ft | 459 kts | 207° |
| 2026-04-20 14:14 | -6.72712 | -33.90951 | 35938 ft | 459 kts | 207° |
| 2026-04-20 14:15 | -6.78368 | -33.93882 | 35928 ft | 459 kts | 207° |
| 2026-04-20 14:15 | -6.84061 | -33.96832 | 35933 ft | 460 kts | 207° |
| 2026-04-20 14:16 | -6.89765 | -33.99789 | 35941 ft | 461 kts | 207° |
| 2026-04-20 14:16 | -6.95485 | -34.02755 | 35933 ft | 463 kts | 207° |
| 2026-04-20 14:17 | -7.01182 | -34.05710 | 35931 ft | 464 kts | 207° |
| 2026-04-20 14:17 | -7.06926 | -34.08690 | 35938 ft | 464 kts | 207° |
| 2026-04-20 14:18 | -7.12687 | -34.11680 | 35932 ft | 465 kts | 207° |
| 2026-04-20 14:18 | -7.18454 | -34.14674 | 35933 ft | 466 kts | 207° |
| 2026-04-20 14:19 | -7.24216 | -34.17666 | 35939 ft | 466 kts | 208° |
| 2026-04-20 14:19 | -7.29947 | -34.20642 | 35932 ft | 465 kts | 208° |
| 2026-04-20 14:20 | -7.35686 | -34.23625 | 35929 ft | 463 kts | 208° |
| 2026-04-20 14:20 | -7.41379 | -34.26583 | 35931 ft | 461 kts | 208° |
| 2026-04-20 14:21 | -7.47062 | -34.29538 | 35931 ft | 459 kts | 208° |
| 2026-04-20 14:21 | -7.52723 | -34.32482 | 35932 ft | 456 kts | 208° |
| 2026-04-20 14:22 | -7.58352 | -34.35411 | 35944 ft | 454 kts | 208° |
| 2026-04-20 14:22 | -7.63964 | -34.38331 | 35937 ft | 453 kts | 208° |
| 2026-04-20 14:23 | -7.69570 | -34.41250 | 35938 ft | 452 kts | 208° |
| 2026-04-20 14:23 | -7.75136 | -34.44158 | 35946 ft | 453 kts | 210° |
| 2026-04-20 14:24 | -7.80260 | -34.47852 | 35949 ft | 453 kts | 220° |
| 2026-04-20 14:24 | -7.85130 | -34.51844 | 35948 ft | 454 kts | 220° |
| 2026-04-20 14:25 | -7.90068 | -34.55861 | 35946 ft | 456 kts | 220° |
| 2026-04-20 14:25 | -7.95057 | -34.59871 | 35943 ft | 458 kts | 219° |
| 2026-04-20 14:26 | -8.00023 | -34.63851 | 35946 ft | 459 kts | 219° |
| 2026-04-20 14:26 | -8.05039 | -34.67873 | 35944 ft | 460 kts | 219° |
| 2026-04-20 14:27 | -8.10043 | -34.71889 | 35941 ft | 460 kts | 219° |
| 2026-04-20 14:27 | -8.15053 | -34.75912 | 35942 ft | 459 kts | 219° |
| 2026-04-20 14:28 | -8.20078 | -34.79827 | 35937 ft | 458 kts | 217° |
| 2026-04-20 14:28 | -8.24440 | -34.82879 | 35941 ft | 457 kts | 215° |
| 2026-04-20 14:29 | -8.29703 | -34.86479 | 35941 ft | 456 kts | 215° |
| 2026-04-20 14:29 | -8.34935 | -34.90096 | 35943 ft | 455 kts | 216° |
| 2026-04-20 14:30 | -8.40118 | -34.93712 | 35949 ft | 454 kts | 216° |
| 2026-04-20 14:30 | -8.45302 | -34.97339 | 35952 ft | 453 kts | 216° |
| 2026-04-20 14:31 | -8.50483 | -35.00965 | 35945 ft | 452 kts | 216° |
| 2026-04-20 14:31 | -8.55651 | -35.04581 | 35950 ft | 451 kts | 216° |
| 2026-04-20 14:32 | -8.60786 | -35.08176 | 35954 ft | 451 kts | 216° |
| 2026-04-20 14:32 | -8.65960 | -35.11799 | 35954 ft | 452 kts | 216° |
| 2026-04-20 14:33 | -8.71120 | -35.15413 | 35947 ft | 453 kts | 216° |
| 2026-04-20 14:33 | -8.76280 | -35.19029 | 35948 ft | 452 kts | 216° |
| 2026-04-20 14:34 | -8.81443 | -35.22649 | 35950 ft | 451 kts | 216° |
| 2026-04-20 14:34 | -8.86607 | -35.26270 | 35952 ft | 451 kts | 216° |
| 2026-04-20 14:35 | -8.91762 | -35.29889 | 35950 ft | 450 kts | 216° |
| 2026-04-20 14:35 | -8.96910 | -35.33513 | 35959 ft | 449 kts | 217° |
| 2026-04-20 14:36 | -9.02014 | -35.37109 | 35955 ft | 449 kts | 217° |
| 2026-04-20 14:36 | -9.07144 | -35.40723 | 35951 ft | 448 kts | 217° |
| 2026-04-20 14:37 | -9.12246 | -35.44319 | 35957 ft | 448 kts | 217° |
| 2026-04-20 14:37 | -9.17365 | -35.47929 | 35951 ft | 448 kts | 217° |
| 2026-04-20 14:38 | -9.22491 | -35.51544 | 35957 ft | 448 kts | 217° |
| 2026-04-20 14:38 | -9.27582 | -35.55128 | 35966 ft | 447 kts | 217° |
| 2026-04-20 14:39 | -9.32693 | -35.58725 | 35952 ft | 446 kts | 217° |
| 2026-04-20 14:39 | -9.37784 | -35.62312 | 35956 ft | 445 kts | 217° |
| 2026-04-20 14:40 | -9.42868 | -35.65895 | 35965 ft | 444 kts | 217° |
| 2026-04-20 14:40 | -9.47906 | -35.69448 | 35964 ft | 443 kts | 217° |
| 2026-04-20 14:41 | -9.52984 | -35.73030 | 35964 ft | 443 kts | 217° |
| 2026-04-20 14:41 | -9.58009 | -35.76576 | 35968 ft | 442 kts | 217° |
| 2026-04-20 14:42 | -9.63059 | -35.80141 | 35965 ft | 442 kts | 217° |
| 2026-04-20 14:42 | -9.68107 | -35.83707 | 35965 ft | 442 kts | 217° |
| 2026-04-20 14:43 | -9.73137 | -35.87260 | 35962 ft | 442 kts | 217° |
| 2026-04-20 14:43 | -9.78184 | -35.90828 | 35959 ft | 442 kts | 217° |
| 2026-04-20 14:44 | -9.83234 | -35.94398 | 35967 ft | 443 kts | 217° |
| 2026-04-20 14:44 | -9.88300 | -35.97981 | 35958 ft | 443 kts | 217° |
| 2026-04-20 14:45 | -9.93330 | -36.01540 | 35954 ft | 443 kts | 217° |
| 2026-04-20 14:45 | -9.98385 | -36.05118 | 35957 ft | 442 kts | 217° |
| 2026-04-20 14:46 | -10.03435 | -36.08694 | 35959 ft | 442 kts | 217° |
| 2026-04-20 14:46 | -10.08458 | -36.12252 | 35968 ft | 442 kts | 217° |
| 2026-04-20 14:47 | -10.13489 | -36.15817 | 35957 ft | 441 kts | 217° |
| 2026-04-20 14:48 | -10.21015 | -36.21153 | 35952 ft | 439 kts | 217° |
| 2026-04-20 14:48 | -10.26016 | -36.24700 | 35956 ft | 438 kts | 217° |
| 2026-04-20 14:49 | -10.30977 | -36.28221 | 35952 ft | 436 kts | 217° |
| 2026-04-20 14:49 | -10.35956 | -36.31756 | 35973 ft | 435 kts | 218° |
| 2026-04-20 14:50 | -10.40927 | -36.35287 | 35957 ft | 435 kts | 218° |
| 2026-04-20 14:50 | -10.45867 | -36.38796 | 35960 ft | 434 kts | 218° |
| 2026-04-20 14:51 | -10.50826 | -36.42321 | 35970 ft | 435 kts | 218° |
| 2026-04-20 14:51 | -10.55791 | -36.45852 | 35953 ft | 435 kts | 218° |
| 2026-04-20 14:52 | -10.60762 | -36.49388 | 35962 ft | 435 kts | 218° |
| 2026-04-20 14:52 | -10.65696 | -36.52899 | 35959 ft | 435 kts | 218° |
| 2026-04-20 14:53 | -10.70657 | -36.56431 | 35951 ft | 435 kts | 218° |
| 2026-04-20 14:53 | -10.75610 | -36.59960 | 35954 ft | 434 kts | 218° |
| 2026-04-20 14:54 | -10.80562 | -36.63489 | 35957 ft | 434 kts | 218° |
| 2026-04-20 14:54 | -10.85480 | -36.66999 | 35955 ft | 434 kts | 218° |
| 2026-04-20 14:55 | -10.90415 | -36.70541 | 35960 ft | 433 kts | 218° |
| 2026-04-20 14:55 | -10.95347 | -36.74087 | 35960 ft | 433 kts | 218° |
| 2026-04-20 14:56 | -11.00239 | -36.77604 | 35962 ft | 433 kts | 218° |
| 2026-04-20 14:56 | -11.05163 | -36.81145 | 35954 ft | 433 kts | 218° |
| 2026-04-20 14:57 | -11.10087 | -36.84687 | 35960 ft | 432 kts | 218° |
| 2026-04-20 14:57 | -11.15007 | -36.88227 | 35962 ft | 432 kts | 218° |
| 2026-04-20 14:58 | -11.19896 | -36.91747 | 35963 ft | 432 kts | 218° |
| 2026-04-20 14:58 | -11.24811 | -36.95287 | 35960 ft | 432 kts | 218° |
| 2026-04-20 14:59 | -11.29741 | -36.98839 | 35959 ft | 432 kts | 218° |
| 2026-04-20 14:59 | -11.34624 | -37.02359 | 35959 ft | 432 kts | 218° |
| 2026-04-20 15:00 | -11.39547 | -37.05909 | 35958 ft | 433 kts | 218° |
| 2026-04-20 15:00 | -11.44466 | -37.09458 | 35974 ft | 432 kts | 218° |
| 2026-04-20 15:01 | -11.49343 | -37.12978 | 35962 ft | 433 kts | 218° |
| 2026-04-20 15:01 | -11.54264 | -37.16532 | 35963 ft | 433 kts | 218° |
| 2026-04-20 15:02 | -11.59180 | -37.20083 | 35957 ft | 433 kts | 218° |
| 2026-04-20 15:02 | -11.64093 | -37.23634 | 35962 ft | 432 kts | 218° |
| 2026-04-20 15:03 | -11.69014 | -37.27192 | 35977 ft | 432 kts | 218° |
| 2026-04-20 15:03 | -11.73921 | -37.30742 | 35961 ft | 432 kts | 218° |
| 2026-04-20 15:04 | -11.78802 | -37.34274 | 35970 ft | 432 kts | 218° |
| 2026-04-20 15:04 | -11.83705 | -37.37825 | 35966 ft | 431 kts | 218° |
| 2026-04-20 15:05 | -11.88582 | -37.41358 | 35970 ft | 431 kts | 218° |
| 2026-04-20 15:05 | -11.93478 | -37.44898 | 35968 ft | 431 kts | 217° |
| 2026-04-20 15:06 | -11.98483 | -37.48286 | 35975 ft | 431 kts | 216° |
| 2026-04-20 15:06 | -12.03529 | -37.51613 | 35969 ft | 431 kts | 216° |
| 2026-04-20 15:07 | -12.08525 | -37.54928 | 35969 ft | 430 kts | 216° |
| 2026-04-20 15:07 | -12.13552 | -37.58286 | 35969 ft | 430 kts | 216° |
| 2026-04-20 15:08 | -12.18532 | -37.61624 | 35973 ft | 430 kts | 216° |
| 2026-04-20 15:08 | -12.23527 | -37.64974 | 35975 ft | 429 kts | 216° |
| 2026-04-20 15:09 | -12.28538 | -37.68336 | 35976 ft | 429 kts | 216° |
| 2026-04-20 15:09 | -12.33532 | -37.71688 | 35972 ft | 429 kts | 216° |
| 2026-04-20 15:10 | -12.38522 | -37.75040 | 35974 ft | 429 kts | 216° |
| 2026-04-20 15:10 | -12.43480 | -37.78370 | 35973 ft | 429 kts | 216° |
| 2026-04-20 15:11 | -12.48471 | -37.81725 | 35987 ft | 429 kts | 216° |
| 2026-04-20 15:11 | -12.53465 | -37.85083 | 35978 ft | 429 kts | 217° |
| 2026-04-20 15:12 | -12.58420 | -37.88416 | 35974 ft | 429 kts | 217° |
| 2026-04-20 15:12 | -12.63422 | -37.91783 | 35977 ft | 429 kts | 217° |
| 2026-04-20 15:13 | -12.68387 | -37.95127 | 35976 ft | 429 kts | 217° |
| 2026-04-20 15:13 | -12.73377 | -37.98488 | 35991 ft | 429 kts | 217° |
| 2026-04-20 15:14 | -12.78363 | -38.01849 | 35986 ft | 429 kts | 217° |
| 2026-04-20 15:14 | -12.83358 | -38.05217 | 35981 ft | 429 kts | 217° |
| 2026-04-20 15:15 | -12.88313 | -38.08559 | 35611 ft | 422 kts | 217° |
| 2026-04-20 15:15 | -12.90721 | -38.10182 | 35263 ft | 416 kts | 217° |
| 2026-04-20 15:15 | -12.93131 | -38.11808 | 34890 ft | 412 kts | 217° |
| 2026-04-20 15:15 | -12.95522 | -38.13422 | 34504 ft | 409 kts | 217° |
| 2026-04-20 15:16 | -12.97891 | -38.15022 | 34121 ft | 406 kts | 217° |
| 2026-04-20 15:16 | -13.00248 | -38.16616 | 33687 ft | 405 kts | 217° |
| 2026-04-20 15:16 | -13.02566 | -38.18183 | 33277 ft | 402 kts | 217° |
| 2026-04-20 15:16 | -13.04894 | -38.19755 | 32870 ft | 399 kts | 217° |
| 2026-04-20 15:17 | -13.07200 | -38.21315 | 32471 ft | 396 kts | 217° |
| 2026-04-20 15:17 | -13.09490 | -38.22863 | 32098 ft | 393 kts | 217° |
| 2026-04-20 15:17 | -13.11767 | -38.24403 | 31719 ft | 390 kts | 217° |
| 2026-04-20 15:17 | -13.13272 | -38.25422 | 31463 ft | 389 kts | 217° |
| 2026-04-20 15:18 | -13.16281 | -38.27458 | 30979 ft | 385 kts | 217° |
| 2026-04-20 15:18 | -13.17761 | -38.28459 | 30733 ft | 384 kts | 217° |
| 2026-04-20 15:18 | -13.19989 | -38.29968 | 30357 ft | 383 kts | 217° |
| 2026-04-20 15:18 | -13.22928 | -38.31958 | 29825 ft | 381 kts | 217° |
| 2026-04-20 15:19 | -13.24419 | -38.32968 | 29567 ft | 379 kts | 217° |
| 2026-04-20 15:19 | -13.27318 | -38.34932 | 29028 ft | 375 kts | 217° |
| 2026-04-20 15:19 | -13.28760 | -38.35908 | 28770 ft | 373 kts | 217° |
| 2026-04-20 15:19 | -13.30933 | -38.37381 | 28382 ft | 371 kts | 217° |
| 2026-04-20 15:20 | -13.33081 | -38.38836 | 28002 ft | 368 kts | 217° |
| 2026-04-20 15:20 | -13.35213 | -38.40282 | 27632 ft | 366 kts | 217° |
| 2026-04-20 15:20 | -13.37329 | -38.41716 | 27267 ft | 363 kts | 217° |
| 2026-04-20 15:20 | -13.39410 | -38.43128 | 26906 ft | 361 kts | 217° |
| 2026-04-20 15:21 | -13.41503 | -38.44548 | 26541 ft | 359 kts | 217° |
| 2026-04-20 15:21 | -13.43583 | -38.45959 | 26185 ft | 357 kts | 217° |
| 2026-04-20 15:21 | -13.45653 | -38.47364 | 25825 ft | 356 kts | 217° |
| 2026-04-20 15:21 | -13.47726 | -38.48772 | 25451 ft | 355 kts | 217° |
| 2026-04-20 15:22 | -13.49778 | -38.50165 | 25100 ft | 354 kts | 217° |
| 2026-04-20 15:22 | -13.51833 | -38.51561 | 24720 ft | 353 kts | 217° |
| 2026-04-20 15:22 | -13.53857 | -38.52937 | 24358 ft | 353 kts | 217° |
| 2026-04-20 15:22 | -13.55907 | -38.54329 | 23993 ft | 352 kts | 217° |
| 2026-04-20 15:23 | -13.57961 | -38.55725 | 23624 ft | 352 kts | 217° |
| 2026-04-20 15:23 | -13.60006 | -38.57116 | 23204 ft | 352 kts | 217° |
| 2026-04-20 15:23 | -13.62040 | -38.58498 | 22830 ft | 350 kts | 217° |
| 2026-04-20 15:23 | -13.64067 | -38.59876 | 22461 ft | 348 kts | 217° |
| 2026-04-20 15:24 | -13.66081 | -38.61246 | 22099 ft | 346 kts | 217° |
| 2026-04-20 15:24 | -13.68079 | -38.62605 | 21744 ft | 344 kts | 217° |
| 2026-04-20 15:24 | -13.70047 | -38.63944 | 21398 ft | 342 kts | 217° |
| 2026-04-20 15:24 | -13.72032 | -38.65295 | 21048 ft | 340 kts | 217° |
| 2026-04-20 15:25 | -13.74005 | -38.66638 | 20701 ft | 339 kts | 216° |
| 2026-04-20 15:25 | -13.75969 | -38.67976 | 20349 ft | 338 kts | 216° |
| 2026-04-20 15:25 | -13.77930 | -38.69312 | 19992 ft | 337 kts | 216° |
| 2026-04-20 15:25 | -13.79881 | -38.70641 | 19647 ft | 336 kts | 216° |
| 2026-04-20 15:26 | -13.81830 | -38.71968 | 19285 ft | 335 kts | 216° |
| 2026-04-20 15:26 | -13.83772 | -38.73240 | 18939 ft | 336 kts | 213° |
| 2026-04-20 15:26 | -13.85825 | -38.74390 | 18585 ft | 336 kts | 210° |
| 2026-04-20 15:26 | -13.87907 | -38.75484 | 18231 ft | 336 kts | 210° |
| 2026-04-20 15:27 | -13.89992 | -38.76566 | 17856 ft | 335 kts | 209° |
| 2026-04-20 15:27 | -13.92063 | -38.77645 | 17500 ft | 332 kts | 209° |
| 2026-04-20 15:27 | -13.94123 | -38.78727 | 17146 ft | 331 kts | 209° |
| 2026-04-20 15:27 | -13.96167 | -38.79807 | 16811 ft | 329 kts | 209° |
| 2026-04-20 15:28 | -13.98171 | -38.80871 | 16468 ft | 327 kts | 209° |
| 2026-04-20 15:28 | -14.00187 | -38.81946 | 16132 ft | 325 kts | 209° |
| 2026-04-20 15:28 | -14.02195 | -38.83019 | 15799 ft | 324 kts | 209° |
| 2026-04-20 15:28 | -14.04195 | -38.84088 | 15460 ft | 322 kts | 209° |
| 2026-04-20 15:29 | -14.06184 | -38.85153 | 15125 ft | 321 kts | 209° |
| 2026-04-20 15:29 | -14.08164 | -38.86213 | 14790 ft | 320 kts | 209° |
| 2026-04-20 15:29 | -14.10136 | -38.87270 | 14451 ft | 319 kts | 209° |
| 2026-04-20 15:29 | -14.12107 | -38.88326 | 14111 ft | 318 kts | 208° |
| 2026-04-20 15:30 | -14.14043 | -38.89364 | 13777 ft | 318 kts | 209° |
| 2026-04-20 15:30 | -14.16005 | -38.90416 | 13410 ft | 317 kts | 208° |
| 2026-04-20 15:30 | -14.17955 | -38.91461 | 13066 ft | 315 kts | 209° |
| 2026-04-20 15:30 | -14.19894 | -38.92502 | 12723 ft | 312 kts | 208° |
| 2026-04-20 15:31 | -14.21793 | -38.93520 | 12381 ft | 303 kts | 208° |
| 2026-04-20 15:31 | -14.23646 | -38.94514 | 12076 ft | 299 kts | 208° |
| 2026-04-20 15:31 | -14.25493 | -38.95505 | 11765 ft | 297 kts | 208° |
| 2026-04-20 15:31 | -14.27304 | -38.96478 | 11459 ft | 296 kts | 207° |
| 2026-04-20 15:32 | -14.29129 | -38.97458 | 11147 ft | 295 kts | 207° |
| 2026-04-20 15:32 | -14.30944 | -38.98433 | 10832 ft | 294 kts | 207° |
| 2026-04-20 15:32 | -14.32755 | -38.99406 | 10530 ft | 293 kts | 207° |
| 2026-04-20 15:32 | -14.34565 | -39.00377 | 10216 ft | 292 kts | 207° |
| 2026-04-20 15:33 | -14.36339 | -39.01332 | 10064 ft | 284 kts | 206° |
| 2026-04-20 15:33 | -14.38071 | -39.02263 | 9838 ft | 280 kts | 206° |
| 2026-04-20 15:33 | -14.39800 | -39.03192 | 9534 ft | 279 kts | 206° |
| 2026-04-20 15:33 | -14.41494 | -39.04102 | 9245 ft | 277 kts | 206° |
| 2026-04-20 15:34 | -14.43204 | -39.05021 | 8943 ft | 276 kts | 206° |
| 2026-04-20 15:34 | -14.44911 | -39.05939 | 8658 ft | 275 kts | 206° |
| 2026-04-20 15:34 | -14.46614 | -39.06854 | 8366 ft | 275 kts | 206° |
| 2026-04-20 15:34 | -14.48308 | -39.07766 | 8072 ft | 274 kts | 206° |
| 2026-04-20 15:35 | -14.49994 | -39.08673 | 7773 ft | 272 kts | 206° |
| 2026-04-20 15:35 | -14.51671 | -39.09576 | 7497 ft | 271 kts | 206° |
| 2026-04-20 15:35 | -14.53322 | -39.10465 | 7212 ft | 270 kts | 206° |
| 2026-04-20 15:35 | -14.54989 | -39.11363 | 6934 ft | 269 kts | 206° |
| 2026-04-20 15:36 | -14.56648 | -39.12257 | 6653 ft | 268 kts | 206° |
| 2026-04-20 15:36 | -14.58301 | -39.13148 | 6368 ft | 268 kts | 205° |
| 2026-04-20 15:36 | -14.59953 | -39.14038 | 6073 ft | 268 kts | 206° |
| 2026-04-20 15:36 | -14.61603 | -39.14928 | 5781 ft | 267 kts | 205° |
| 2026-04-20 15:37 | -14.63226 | -39.15804 | 5491 ft | 259 kts | 205° |
| 2026-04-20 15:37 | -14.64818 | -39.16663 | 5234 ft | 257 kts | 206° |
| 2026-04-20 15:37 | -14.66383 | -39.17507 | 4986 ft | 256 kts | 206° |
| 2026-04-20 15:37 | -14.67955 | -39.18355 | 4719 ft | 255 kts | 206° |
| 2026-04-20 15:38 | -14.69525 | -39.19202 | 4445 ft | 254 kts | 206° |
| 2026-04-20 15:38 | -14.71092 | -39.20048 | 4182 ft | 253 kts | 205° |
| 2026-04-20 15:38 | -14.72596 | -39.20859 | 4075 ft | 245 kts | 205° |
| 2026-04-20 15:38 | -14.74163 | -39.21453 | 3864 ft | 239 kts | 182° |
| 2026-04-20 15:39 | -14.75801 | -39.21417 | 3686 ft | 231 kts | 177° |
| 2026-04-20 15:39 | -14.77372 | -39.21364 | 3433 ft | 227 kts | 177° |
| 2026-04-20 15:39 | -14.78930 | -39.21319 | 3197 ft | 220 kts | 176° |
| 2026-04-20 15:39 | -14.80390 | -39.21017 | 2952 ft | 212 kts | 151° |
| 2026-04-20 15:40 | -14.81433 | -39.20010 | 2747 ft | 202 kts | 124° |
| 2026-04-20 15:40 | -14.81940 | -39.18693 | 2537 ft | 194 kts | 102° |
| 2026-04-20 15:40 | -14.81962 | -39.17333 | 2306 ft | 183 kts | 90° |
| 2026-04-20 15:40 | -14.81929 | -39.16058 | 2129 ft | 172 kts | 90° |
| 2026-04-20 15:41 | -14.81903 | -39.14876 | 1984 ft | 159 kts | 91° |
| 2026-04-20 15:41 | -14.81875 | -39.13779 | 1844 ft | 146 kts | 92° |
| 2026-04-20 15:41 | -14.81849 | -39.12753 | 1722 ft | 141 kts | 91° |
| 2026-04-20 15:41 | -14.81821 | -39.11738 | 1518 ft | 144 kts | 91° |
| 2026-04-20 15:42 | -14.81793 | -39.10694 | 1313 ft | 143 kts | 92° |
| 2026-04-20 15:42 | -14.81765 | -39.09679 | 1154 ft | 146 kts | 92° |
| 2026-04-20 15:42 | -14.81736 | -39.08600 | 920 ft | 153 kts | 91° |
| 2026-04-20 15:42 | -14.81706 | -39.07533 | 756 ft | 144 kts | 92° |
| 2026-04-20 15:43 | -14.81662 | -39.06521 | 576 ft | 139 kts | 91° |
| 2026-04-20 15:43 | -14.81642 | -39.05514 | 390 ft | 142 kts | 92° |
| 2026-04-20 15:43 | -14.81612 | -39.04490 | 145 ft | 142 kts | 91° |
| 2026-04-20 15:43 | -14.81591 | -39.03513 | 25 ft | 125 kts | 92° |
| 2026-04-20 15:44 | -14.81579 | -39.02787 | 17 ft | 59 kts | 88° |
| 2026-04-20 15:44 | -14.81594 | -39.02648 | 18 ft | 9 kts | 124° |
| 2026-04-20 15:44 | -14.81594 | -39.02605 | 20 ft | 4 kts | 35° |
| 2026-04-20 15:44 | -14.81574 | -39.02622 | 18 ft | 5 kts | 282° |
| 2026-04-20 15:45 | -14.81573 | -39.02666 | 19 ft | 8 kts | 272° |
| 2026-04-20 15:45 | -14.81575 | -39.02732 | 17 ft | 10 kts | 265° |
| 2026-04-20 15:45 | -14.81579 | -39.02808 | 18 ft | 11 kts | 267° |
| 2026-04-20 15:45 | -14.81581 | -39.02889 | 16 ft | 10 kts | 269° |
| 2026-04-20 15:46 | -14.81583 | -39.02967 | 16 ft | 11 kts | 269° |
| 2026-04-20 15:46 | -14.81583 | -39.03036 | 16 ft | 8 kts | 279° |
| 2026-04-20 15:46 | -14.81551 | -39.03080 | 16 ft | 8 kts | 338° |
| 2026-04-20 15:46 | -14.81502 | -39.03085 | 17 ft | 6 kts | 349° |
| 2026-04-20 15:47 | -14.81484 | -39.03114 | 17 ft | 5 kts | 274° |
| 2026-04-20 15:47 | -14.81469 | -39.03141 | 18 ft | 2 kts | 328° |
| 2026-04-20 15:47 | -14.81457 | -39.03149 | 18 ft | 3 kts | 325° |
| 2026-04-20 15:47 | -14.81450 | -39.03156 | 18 ft | 1 kts | 314° |
| 2026-04-20 15:48 | -14.81443 | -39.03163 | 18 ft | 0 kts | 314° |